createdAt,value
2019-05-05T00:02:34.653Z,27.90
2019-05-05T00:05:19.356Z,27.90
2019-05-05T00:07:54.061Z,28.00
2019-05-05T00:10:29.843Z,28.10
2019-05-05T00:13:04.492Z,28.10
2019-05-05T00:15:39.831Z,28.20
2019-05-05T00:18:11.379Z,28.20
2019-05-05T00:20:46.174Z,28.20
2019-05-05T00:23:20.017Z,28.30
2019-05-05T00:25:55.264Z,28.40
2019-05-05T00:28:27.905Z,28.40
2019-05-05T00:30:59.461Z,28.50
2019-05-05T00:33:34.232Z,28.60
2019-05-05T00:36:07.740Z,28.70
2019-05-05T00:38:41.747Z,28.70
2019-05-05T00:41:14.978Z,28.80
2019-05-05T00:43:46.579Z,28.80
2019-05-05T00:46:24.458Z,28.90
2019-05-05T00:48:56.412Z,28.90
2019-05-05T00:51:28.210Z,29.00
2019-05-05T00:54:00.892Z,29.00
2019-05-05T00:56:35.491Z,29.00
2019-05-05T00:59:08.770Z,29.10
2019-05-05T01:01:44.812Z,29.10
2019-05-05T01:04:20.661Z,29.20
2019-05-05T01:06:54.429Z,29.20
2019-05-05T01:09:28.545Z,29.30
2019-05-05T01:12:01.636Z,29.40
2019-05-05T01:14:37.402Z,29.40
2019-05-05T01:17:08.959Z,29.50
2019-05-05T01:19:41.457Z,29.60
2019-05-05T01:22:14.424Z,29.60
2019-05-05T01:24:46.208Z,29.60
2019-05-05T01:27:19.148Z,29.60
2019-05-05T01:29:51.888Z,29.70
2019-05-05T01:32:35.080Z,29.70
2019-05-05T01:35:10.676Z,29.70
2019-05-05T01:38:02.164Z,29.80
2019-05-05T01:40:54.649Z,29.90
2019-05-05T01:43:25.406Z,30.00
2019-05-05T01:45:58.204Z,30.10
2019-05-05T01:48:30.788Z,30.10
2019-05-05T01:51:06.999Z,30.20
2019-05-05T01:53:41.207Z,30.20
2019-05-05T01:56:15.399Z,30.30
2019-05-05T01:58:49.530Z,30.50
2019-05-05T02:01:24.505Z,30.50
2019-05-05T02:03:56.008Z,30.60
2019-05-05T02:06:34.879Z,30.60
2019-05-05T02:09:09.407Z,30.70
2019-05-05T02:11:45.267Z,30.90
2019-05-05T02:14:20.652Z,31.00
2019-05-05T02:16:54.409Z,31.00
2019-05-05T02:19:25.330Z,31.10
2019-05-05T02:21:58.035Z,31.30
2019-05-05T02:24:29.378Z,31.40
2019-05-05T02:27:01.015Z,31.40
2019-05-05T02:29:36.888Z,31.50
2019-05-05T02:32:17.515Z,31.50
2019-05-05T02:34:56.138Z,31.60
2019-05-05T02:37:27.547Z,31.70
2019-05-05T02:40:06.552Z,31.80
2019-05-05T02:42:39.156Z,31.80
2019-05-05T02:45:15.434Z,32.00
2019-05-05T02:47:47.055Z,32.20
2019-05-05T02:50:25.121Z,32.30
2019-05-05T02:52:58.422Z,32.40
2019-05-05T02:55:32.254Z,32.50
2019-05-05T02:58:04.925Z,32.70
2019-05-05T03:00:35.927Z,32.80
2019-05-05T03:03:10.500Z,33.00
2019-05-05T03:05:43.481Z,33.10
2019-05-05T03:08:15.097Z,33.30
2019-05-05T03:10:48.609Z,33.50
2019-05-05T03:13:20.433Z,33.70
2019-05-05T03:15:55.755Z,33.80
2019-05-05T03:18:31.249Z,33.90
2019-05-05T03:21:07.500Z,34.00
2019-05-05T03:23:39.777Z,34.00
2019-05-05T03:26:14.079Z,34.10
2019-05-05T03:28:54.921Z,34.20
2019-05-05T03:31:28.301Z,34.30
2019-05-05T03:34:00.360Z,34.40
2019-05-05T03:36:34.057Z,34.50
2019-05-05T03:39:08.217Z,34.60
2019-05-05T03:41:43.717Z,34.80
2019-05-05T03:44:16.018Z,34.90
2019-05-05T03:46:48.649Z,35.10
2019-05-05T03:49:21.555Z,35.10
2019-05-05T03:51:54.406Z,35.20
2019-05-05T03:54:27.090Z,35.30
2019-05-05T03:57:15.420Z,35.40
2019-05-05T03:59:49.905Z,35.50
2019-05-05T04:02:25.036Z,35.60
2019-05-05T04:04:57.792Z,35.80
2019-05-05T04:07:33.523Z,35.90
2019-05-05T04:10:05.946Z,36.10
2019-05-05T04:12:43.516Z,36.30
2019-05-05T04:15:15.978Z,36.30
2019-05-05T04:17:58.425Z,36.30
2019-05-05T04:20:39.706Z,36.30
2019-05-05T04:23:14.147Z,36.30
2019-05-05T04:25:46.932Z,36.40
2019-05-05T04:28:24.082Z,36.50
2019-05-05T04:30:59.547Z,36.60
2019-05-05T04:33:35.845Z,36.70
2019-05-05T04:36:11.062Z,36.80
2019-05-05T04:38:47.198Z,36.90
2019-05-05T04:41:19.960Z,36.80
2019-05-05T04:43:54.548Z,37.00
2019-05-05T04:46:26.647Z,37.20
2019-05-05T04:49:03.565Z,37.30
2019-05-05T04:51:54.330Z,37.40
2019-05-05T04:54:33.928Z,37.60
2019-05-05T04:57:08.353Z,37.80
2019-05-05T04:59:40.892Z,38.00
2019-05-05T05:02:31.192Z,38.00
2019-05-05T05:05:06.750Z,37.90
2019-05-05T05:07:38.660Z,37.80
2019-05-05T05:10:13.887Z,37.70
2019-05-05T05:12:46.751Z,37.70
2019-05-05T05:15:20.531Z,37.80
2019-05-05T05:18:14.775Z,38.00
2019-05-05T05:20:49.547Z,38.20
2019-05-05T05:23:22.077Z,38.30
2019-05-05T05:25:54.612Z,38.40
2019-05-05T05:28:28.687Z,38.50
2019-05-05T05:31:01.377Z,38.50
2019-05-05T05:33:34.502Z,38.60
2019-05-05T05:36:05.835Z,38.70
2019-05-05T05:38:40.901Z,38.80
2019-05-05T05:41:17.686Z,38.90
2019-05-05T05:44:13.960Z,39.00
2019-05-05T05:46:46.217Z,39.10
2019-05-05T05:49:19.340Z,39.20
2019-05-05T05:51:53.784Z,39.40
2019-05-05T05:54:25.903Z,39.50
2019-05-05T05:56:59.079Z,39.50
2019-05-05T05:59:37.452Z,39.50
2019-05-05T06:02:15.640Z,39.50
2019-05-05T06:04:49.222Z,39.50
2019-05-05T06:07:24.963Z,39.60
2019-05-05T06:09:57.781Z,39.70
2019-05-05T06:12:33.483Z,39.80
2019-05-05T06:15:05.865Z,39.90
2019-05-05T06:17:40.843Z,39.80
2019-05-05T06:20:19.151Z,39.60
2019-05-05T06:22:56.527Z,39.50
2019-05-05T06:25:31.107Z,39.30
2019-05-05T06:28:04.457Z,39.10
2019-05-05T06:30:39.104Z,39.10
2019-05-05T06:33:15.470Z,39.00
2019-05-05T06:35:50.212Z,38.90
2019-05-05T06:38:24.680Z,38.90
2019-05-05T06:41:04.101Z,38.80
2019-05-05T06:43:36.678Z,38.80
2019-05-05T06:46:27.394Z,38.80
2019-05-05T06:49:04.252Z,38.80
2019-05-05T06:51:37.313Z,38.80
2019-05-05T06:54:10.189Z,38.90
2019-05-05T06:56:44.482Z,38.90
2019-05-05T06:59:16.268Z,38.90
2019-05-05T07:01:47.829Z,38.90
2019-05-05T07:04:24.384Z,39.00
2019-05-05T07:06:57.182Z,39.10
2019-05-05T07:09:33.456Z,39.30
2019-05-05T07:12:05.671Z,39.50
2019-05-05T07:14:41.153Z,39.60
2019-05-05T07:17:14.039Z,39.70
2019-05-05T07:19:46.987Z,39.70
2019-05-05T07:22:19.776Z,39.80
2019-05-05T07:24:54.047Z,39.90
2019-05-05T07:27:26.333Z,39.70
2019-05-05T07:29:58.927Z,39.60
2019-05-05T07:32:33.687Z,39.60
2019-05-05T07:35:14.545Z,39.50
2019-05-05T07:37:46.210Z,39.40
2019-05-05T07:40:24.259Z,39.40
2019-05-05T07:42:56.537Z,39.50
2019-05-05T07:45:28.898Z,39.70
2019-05-05T07:48:01.201Z,39.90
2019-05-05T07:50:35.822Z,40.00
2019-05-05T07:53:14.590Z,40.10
2019-05-05T07:55:43.693Z,40.10
2019-05-05T07:58:16.143Z,40.20
2019-05-05T08:00:47.768Z,40.30
2019-05-05T08:03:18.965Z,40.20
2019-05-05T08:05:51.433Z,40.30
2019-05-05T08:08:24.439Z,40.20
2019-05-05T08:10:58.658Z,40.00
2019-05-05T08:13:33.513Z,39.90
2019-05-05T08:16:06.714Z,39.70
2019-05-05T08:18:55.740Z,39.50
2019-05-05T08:21:31.338Z,39.50
2019-05-05T08:24:14.765Z,39.60
2019-05-05T08:26:50.302Z,39.50
2019-05-05T08:29:43.855Z,39.60
2019-05-05T08:32:17.504Z,39.60
2019-05-05T08:34:59.756Z,39.60
2019-05-05T08:37:27.608Z,39.60
2019-05-05T08:40:00.576Z,39.50
2019-05-05T08:42:35.140Z,39.40
2019-05-05T08:45:07.151Z,39.40
2019-05-05T08:47:40.557Z,39.30
2019-05-05T08:50:13.776Z,39.20
2019-05-05T08:52:48.072Z,39.20
2019-05-05T08:55:19.727Z,39.10
2019-05-05T08:57:53.924Z,39.10
2019-05-05T09:00:26.358Z,39.00
2019-05-05T09:03:04.094Z,38.90
2019-05-05T09:05:39.038Z,38.90
2019-05-05T09:08:13.982Z,38.80
2019-05-05T09:10:46.591Z,38.90
2019-05-05T09:13:19.331Z,38.90
2019-05-05T09:15:54.394Z,39.00
2019-05-05T09:18:28.773Z,38.90
2019-05-05T09:21:01.322Z,38.90
2019-05-05T09:23:34.721Z,38.90
2019-05-05T09:26:09.959Z,38.90
2019-05-05T09:28:46.976Z,38.90
2019-05-05T09:31:23.964Z,38.90
2019-05-05T09:33:56.618Z,38.80
2019-05-05T09:36:30.941Z,38.80
2019-05-05T09:39:06.006Z,38.70
2019-05-05T09:41:40.530Z,38.70
2019-05-05T09:44:13.608Z,38.60
2019-05-05T09:46:45.485Z,38.60
2019-05-05T09:49:17.800Z,38.60
2019-05-05T09:51:54.446Z,38.50
2019-05-05T09:54:26.905Z,38.40
2019-05-05T09:56:59.758Z,38.40
2019-05-05T09:59:34.445Z,38.30
2019-05-05T10:02:06.352Z,38.30
2019-05-05T10:04:43.927Z,38.20
2019-05-05T10:07:21.163Z,38.20
2019-05-05T10:09:55.793Z,38.10
2019-05-05T10:12:26.992Z,38.10
2019-05-05T10:14:59.553Z,38.00
2019-05-05T10:17:33.633Z,38.00
2019-05-05T10:20:07.529Z,37.90
2019-05-05T10:22:41.243Z,37.80
2019-05-05T10:25:34.324Z,37.80
2019-05-05T10:28:06.838Z,37.70
2019-05-05T10:30:39.450Z,37.60
2019-05-05T10:33:14.103Z,37.60
2019-05-05T10:35:46.207Z,37.50
2019-05-05T10:38:18.554Z,37.50
2019-05-05T10:40:50.996Z,37.40
2019-05-05T10:43:23.798Z,37.30
2019-05-05T10:45:58.649Z,37.20
2019-05-05T10:48:33.911Z,37.00
2019-05-05T10:51:05.937Z,36.60
2019-05-05T10:53:38.331Z,36.30
2019-05-05T10:56:09.867Z,35.80
2019-05-05T10:58:44.215Z,35.40
2019-05-05T11:01:16.777Z,34.90
2019-05-05T11:03:51.520Z,34.50
2019-05-05T11:06:24.075Z,34.10
2019-05-05T11:08:55.981Z,33.90
2019-05-05T11:11:28.409Z,33.70
2019-05-05T11:14:00.820Z,33.60
2019-05-05T11:16:33.418Z,33.40
2019-05-05T11:19:08.894Z,33.30
2019-05-05T11:21:43.449Z,33.10
2019-05-05T11:24:17.480Z,32.90
2019-05-05T11:26:54.118Z,32.80
2019-05-05T11:29:27.265Z,32.70
2019-05-05T11:32:03.646Z,32.60
2019-05-05T11:34:38.061Z,32.60
2019-05-05T11:37:11.030Z,32.50
2019-05-05T11:39:45.576Z,32.50
2019-05-05T11:42:19.538Z,32.50
2019-05-05T11:44:54.374Z,32.60
2019-05-05T11:47:27.310Z,32.60
2019-05-05T11:50:04.389Z,32.60
2019-05-05T11:52:35.797Z,32.70
2019-05-05T11:55:12.150Z,32.70
2019-05-05T11:57:43.819Z,32.70
2019-05-05T12:00:16.554Z,32.70
2019-05-05T12:02:49.258Z,32.70
2019-05-05T12:05:24.289Z,32.70
2019-05-05T12:07:56.488Z,32.70
2019-05-05T12:10:34.434Z,32.80
2019-05-05T12:13:08.004Z,32.80
2019-05-05T12:15:40.400Z,32.90
2019-05-05T12:18:14.400Z,32.90
2019-05-05T12:20:47.878Z,32.90
2019-05-05T12:23:20.415Z,32.90
2019-05-05T12:25:58.305Z,32.90
2019-05-05T12:28:36.426Z,32.80
2019-05-05T12:31:25.783Z,32.90
2019-05-05T12:33:57.519Z,32.80
2019-05-05T12:36:31.585Z,32.70
2019-05-05T12:39:07.206Z,32.70
2019-05-05T12:41:39.789Z,32.60
2019-05-05T12:44:14.984Z,32.60
2019-05-05T12:46:50.442Z,32.50
2019-05-05T12:49:25.341Z,32.50
2019-05-05T12:51:56.773Z,32.50
2019-05-05T12:54:28.374Z,32.50
2019-05-05T12:57:00.791Z,32.50
2019-05-05T12:59:35.959Z,32.40
2019-05-05T13:02:09.261Z,32.40
2019-05-05T13:04:41.987Z,32.40
2019-05-05T13:07:16.944Z,32.40
2019-05-05T13:09:49.432Z,32.40
2019-05-05T13:12:23.989Z,32.30
2019-05-05T13:14:57.697Z,32.20
2019-05-05T13:17:30.566Z,32.20
2019-05-05T13:20:04.571Z,32.00
2019-05-05T13:22:38.119Z,31.90
2019-05-05T13:25:29.588Z,31.90
2019-05-05T13:28:01.646Z,31.80
2019-05-05T13:30:34.565Z,31.70
2019-05-05T13:33:07.137Z,31.70
2019-05-05T13:35:40.751Z,31.70
2019-05-05T13:38:14.546Z,31.60
2019-05-05T13:40:47.280Z,31.50
2019-05-05T13:43:23.758Z,31.50
2019-05-05T13:46:03.461Z,31.50
2019-05-05T13:48:36.258Z,31.40
2019-05-05T13:51:17.352Z,31.40
2019-05-05T13:53:49.879Z,31.40
2019-05-05T13:56:24.359Z,31.40
2019-05-05T13:58:58.252Z,31.40
2019-05-05T14:01:34.050Z,31.40
2019-05-05T14:04:05.651Z,31.40
2019-05-05T14:06:38.102Z,31.30
2019-05-05T14:09:11.035Z,31.40
2019-05-05T14:11:44.563Z,31.30
2019-05-05T14:14:16.419Z,31.30
2019-05-05T14:16:48.665Z,31.30
2019-05-05T14:19:21.240Z,31.30
2019-05-05T14:21:53.948Z,31.20
2019-05-05T14:24:29.658Z,31.00
2019-05-05T14:27:04.481Z,31.00
2019-05-05T14:29:37.801Z,30.90
2019-05-05T14:32:13.387Z,30.80
2019-05-05T14:34:47.002Z,30.70
2019-05-05T14:37:36.911Z,30.60
2019-05-05T14:40:10.648Z,30.50
2019-05-05T14:42:44.065Z,30.30
2019-05-05T14:45:17.345Z,30.30
2019-05-05T14:47:50.087Z,30.20
2019-05-05T14:50:24.375Z,30.00
2019-05-05T14:52:56.968Z,30.00
2019-05-05T14:55:33.599Z,29.90
2019-05-05T14:58:05.440Z,29.80
2019-05-05T15:00:39.474Z,29.80
2019-05-05T15:03:15.128Z,29.70
2019-05-05T15:06:04.769Z,29.70
2019-05-05T15:08:38.620Z,29.60
2019-05-05T15:11:14.207Z,29.60
2019-05-05T15:13:46.864Z,29.50
2019-05-05T15:16:19.507Z,29.50
2019-05-05T15:18:52.499Z,29.40
2019-05-05T15:21:25.198Z,29.40
2019-05-05T15:23:58.067Z,29.30
2019-05-05T15:26:30.493Z,29.30
2019-05-05T15:29:03.219Z,29.20
2019-05-05T15:31:35.988Z,29.20
2019-05-05T15:34:08.687Z,29.20
2019-05-05T15:36:43.958Z,29.20
2019-05-05T15:39:18.124Z,29.20
2019-05-05T15:41:50.506Z,29.20
2019-05-05T15:44:24.834Z,29.20
2019-05-05T15:46:58.105Z,29.20
2019-05-05T15:49:32.476Z,29.20
2019-05-05T15:52:06.959Z,29.30
2019-05-05T15:54:40.048Z,29.30
2019-05-05T15:57:14.509Z,29.40
2019-05-05T15:59:47.544Z,29.40
2019-05-05T16:02:20.365Z,29.40
2019-05-05T16:04:53.948Z,29.40
2019-05-05T16:07:25.868Z,29.40
2019-05-05T16:09:58.452Z,29.30
2019-05-05T16:12:34.358Z,29.30
2019-05-05T16:15:24.242Z,29.40
2019-05-05T16:17:58.358Z,29.40
2019-05-05T16:20:33.278Z,29.40
2019-05-05T16:23:07.242Z,29.40
2019-05-05T16:25:41.682Z,29.40
2019-05-05T16:28:14.535Z,29.30
2019-05-05T16:30:48.271Z,29.30
2019-05-05T16:33:19.783Z,29.30
2019-05-05T16:35:52.433Z,29.30
2019-05-05T16:38:24.238Z,29.20
2019-05-05T16:40:56.051Z,29.30
2019-05-05T16:43:27.641Z,29.20
2019-05-05T16:46:00.964Z,29.20
2019-05-05T16:48:34.322Z,29.10
2019-05-05T16:51:07.252Z,29.20
2019-05-05T16:53:42.536Z,29.10
2019-05-05T16:56:17.712Z,29.10
2019-05-05T16:58:51.127Z,29.20
2019-05-05T17:01:23.874Z,29.20
2019-05-05T17:04:08.170Z,29.20
2019-05-05T17:06:29.144Z,29.10
2019-05-05T17:09:04.513Z,29.10
2019-05-05T17:11:37.665Z,29.10
2019-05-05T17:14:12.669Z,29.10
2019-05-05T17:16:54.490Z,29.00
2019-05-05T17:19:27.552Z,29.10
2019-05-05T17:22:17.083Z,29.00
2019-05-05T17:24:53.541Z,29.10
2019-05-05T17:27:26.379Z,29.00
2019-05-05T17:29:58.010Z,29.00
2019-05-05T17:32:31.063Z,29.00
2019-05-05T17:35:03.847Z,29.00
2019-05-05T17:37:38.475Z,29.00
2019-05-05T17:40:30.964Z,29.00
2019-05-05T17:43:24.440Z,29.00
2019-05-05T17:46:08.520Z,29.00
2019-05-05T17:48:45.236Z,29.00
2019-05-05T17:51:36.804Z,29.10
2019-05-05T17:54:26.797Z,29.00
2019-05-05T17:57:01.028Z,29.10
2019-05-05T17:59:34.257Z,29.10
2019-05-05T18:02:07.106Z,29.10
2019-05-05T18:04:39.985Z,29.00
2019-05-05T18:07:14.265Z,29.00
2019-05-05T18:10:04.855Z,29.00
2019-05-05T18:12:44.524Z,29.00
2019-05-05T18:15:17.411Z,29.10
2019-05-05T18:17:49.071Z,29.00
2019-05-05T18:20:21.632Z,29.00
2019-05-05T18:22:54.459Z,29.00
2019-05-05T18:25:28.459Z,29.00
2019-05-05T18:28:15.356Z,29.00
2019-05-05T18:30:35.574Z,28.90
2019-05-05T18:33:07.102Z,29.00
2019-05-05T18:35:39.855Z,29.00
2019-05-05T18:38:14.240Z,28.90
2019-05-05T18:40:46.568Z,29.00
2019-05-05T18:43:20.417Z,29.00
2019-05-05T18:45:55.828Z,28.90
2019-05-05T18:48:28.430Z,28.90
2019-05-05T18:51:00.797Z,28.90
2019-05-05T18:53:33.996Z,28.90
2019-05-05T18:56:06.201Z,28.90
2019-05-05T18:58:37.731Z,28.90
2019-05-05T19:01:16.147Z,28.90
2019-05-05T19:04:07.565Z,28.90
2019-05-05T19:06:39.678Z,28.90
2019-05-05T19:09:13.762Z,28.90
2019-05-05T19:11:45.279Z,28.90
2019-05-05T19:14:17.965Z,28.90
2019-05-05T19:16:50.883Z,28.90
2019-05-05T19:19:23.983Z,28.90
2019-05-05T19:22:04.340Z,28.90
2019-05-05T19:24:37.042Z,28.90
2019-05-05T19:27:08.580Z,28.90
2019-05-05T19:29:40.218Z,28.80
2019-05-05T19:32:13.248Z,28.80
2019-05-05T19:34:45.687Z,28.80
2019-05-05T19:37:18.779Z,28.70
2019-05-05T19:39:51.502Z,28.70
2019-05-05T19:42:24.071Z,28.70
2019-05-05T19:44:56.433Z,28.70
2019-05-05T19:47:28.889Z,28.80
2019-05-05T19:50:02.288Z,28.80
2019-05-05T19:52:34.840Z,28.80
2019-05-05T19:55:08.929Z,28.80
2019-05-05T19:57:41.276Z,28.90
2019-05-05T20:00:14.592Z,28.90
2019-05-05T20:03:04.516Z,28.90
2019-05-05T20:05:34.136Z,28.90
2019-05-05T20:08:06.687Z,28.90
2019-05-05T20:10:39.507Z,28.90
2019-05-05T20:13:11.277Z,28.80
2019-05-05T20:15:44.341Z,28.70
2019-05-05T20:18:17.092Z,28.70
2019-05-05T20:21:00.936Z,28.70
2019-05-05T20:23:24.268Z,28.70
2019-05-05T20:25:56.760Z,28.70
2019-05-05T20:28:28.368Z,28.70
2019-05-05T20:30:59.923Z,28.70
2019-05-05T20:33:50.309Z,28.70
2019-05-05T20:36:23.760Z,28.70
2019-05-05T20:38:58.363Z,28.70
2019-05-05T20:41:30.677Z,28.60
2019-05-05T20:44:05.744Z,28.70
2019-05-05T20:46:37.695Z,28.70
2019-05-05T20:49:11.595Z,28.70
2019-05-05T20:51:44.426Z,28.70
2019-05-05T20:54:16.095Z,28.80
2019-05-05T20:56:47.758Z,28.80
2019-05-05T20:59:28.146Z,28.80
2019-05-05T21:01:54.826Z,28.80
2019-05-05T21:04:27.772Z,28.80
2019-05-05T21:07:00.278Z,28.90
2019-05-05T21:09:34.462Z,28.90
2019-05-05T21:12:07.210Z,28.90
2019-05-05T21:14:39.613Z,28.90
2019-05-05T21:17:11.112Z,29.00
2019-05-05T21:19:42.818Z,29.00
2019-05-05T21:22:33.822Z,29.10
2019-05-05T21:25:07.017Z,29.10
2019-05-05T21:27:38.563Z,29.10
2019-05-05T21:30:10.957Z,29.10
2019-05-05T21:32:43.551Z,29.10
2019-05-05T21:35:15.169Z,29.00
2019-05-05T21:37:47.345Z,29.00
2019-05-05T21:40:24.867Z,29.00
2019-05-05T21:42:56.351Z,29.00
2019-05-05T21:45:27.980Z,29.00
2019-05-05T21:48:00.370Z,29.00
2019-05-05T21:50:50.898Z,29.00
2019-05-05T21:53:26.719Z,29.10
2019-05-05T21:56:00.462Z,29.10
2019-05-05T21:58:48.441Z,29.10
2019-05-05T22:01:21.400Z,29.10
2019-05-05T22:03:53.862Z,29.10
2019-05-05T22:06:25.920Z,29.10
2019-05-05T22:08:57.432Z,29.00
2019-05-05T22:11:28.987Z,29.00
2019-05-05T22:14:04.231Z,29.00
2019-05-05T22:16:36.030Z,29.00
2019-05-05T22:19:09.060Z,29.00
2019-05-05T22:21:44.583Z,28.90
2019-05-05T22:24:25.004Z,28.90
2019-05-05T22:26:56.445Z,28.80
2019-05-05T22:29:28.042Z,28.70
2019-05-05T22:31:59.535Z,28.60
2019-05-05T22:34:33.613Z,28.50
2019-05-05T22:37:08.931Z,28.40
2019-05-05T22:39:40.805Z,28.40
2019-05-05T22:42:15.791Z,28.40
2019-05-05T22:44:48.399Z,28.40
2019-05-05T22:47:23.493Z,28.30
2019-05-05T22:49:55.388Z,28.30
2019-05-05T22:52:26.928Z,28.30
2019-05-05T22:54:59.408Z,28.20
2019-05-05T22:57:30.739Z,28.20
2019-05-05T23:00:05.435Z,28.20
2019-05-05T23:02:37.988Z,28.20
2019-05-05T23:05:11.306Z,28.20
2019-05-05T23:07:43.855Z,28.20
2019-05-05T23:10:16.641Z,28.20
2019-05-05T23:12:48.360Z,28.20
2019-05-05T23:15:20.977Z,28.20
2019-05-05T23:17:56.106Z,28.30
2019-05-05T23:20:49.540Z,28.30
2019-05-05T23:23:40.137Z,28.30
2019-05-05T23:26:15.646Z,28.20
2019-05-05T23:28:48.117Z,28.20
2019-05-05T23:31:20.800Z,28.20
2019-05-05T23:33:55.029Z,28.10
2019-05-05T23:36:26.644Z,28.10
2019-05-05T23:38:57.981Z,28.20
2019-05-05T23:41:30.549Z,28.20
2019-05-05T23:44:05.205Z,28.20
2019-05-05T23:46:38.237Z,28.20
2019-05-05T23:49:11.202Z,28.20
2019-05-05T23:51:44.100Z,28.20
2019-05-05T23:54:16.343Z,28.30
2019-05-05T23:56:49.177Z,28.30
2019-05-05T23:59:20.552Z,28.30
